createdAt,value
2017-10-29T00:02:02.265Z,81.30
2017-10-29T00:04:29.893Z,81.10
2017-10-29T00:06:57.509Z,81.20
2017-10-29T00:09:25.194Z,81.30
2017-10-29T00:11:53.589Z,80.90
2017-10-29T00:14:21.225Z,80.80
2017-10-29T00:16:48.913Z,80.90
2017-10-29T00:19:16.509Z,81.50
2017-10-29T00:21:44.150Z,80.50
2017-10-29T00:24:11.772Z,80.40
2017-10-29T00:26:40.147Z,80.60
2017-10-29T00:29:07.793Z,80.50
2017-10-29T00:31:35.405Z,80.70
2017-10-29T00:34:02.997Z,80.70
2017-10-29T00:36:32.258Z,80.70
2017-10-29T00:38:59.872Z,81.30
2017-10-29T00:41:27.990Z,81.70
2017-10-29T00:43:55.593Z,81.60
2017-10-29T00:46:23.197Z,81.60
2017-10-29T00:48:51.593Z,81.30
2017-10-29T00:51:19.213Z,81.10
2017-10-29T00:53:46.850Z,81.10
2017-10-29T00:56:14.463Z,80.70
2017-10-29T00:58:42.829Z,80.80
2017-10-29T01:01:10.475Z,80.70
2017-10-29T01:03:38.110Z,81.00
2017-10-29T01:06:05.737Z,80.70
2017-10-29T01:08:33.356Z,80.70
2017-10-29T01:11:00.964Z,80.50
2017-10-29T01:13:28.590Z,80.50
2017-10-29T01:15:56.187Z,80.50
2017-10-29T01:18:23.835Z,80.50
2017-10-29T01:20:52.204Z,80.20
2017-10-29T01:23:20.572Z,80.40
2017-10-29T01:25:48.234Z,80.20
2017-10-29T01:28:15.824Z,80.40
2017-10-29T01:30:43.469Z,80.50
2017-10-29T01:33:11.850Z,80.20
2017-10-29T01:35:40.226Z,80.20
2017-10-29T01:38:08.626Z,80.10
2017-10-29T01:40:36.241Z,80.10
2017-10-29T01:43:03.890Z,79.90
2017-10-29T01:45:31.496Z,80.00
2017-10-29T01:47:59.897Z,79.70
2017-10-29T01:50:27.492Z,79.70
2017-10-29T01:52:55.114Z,79.50
2017-10-29T01:55:22.725Z,79.50
2017-10-29T01:57:51.114Z,79.60
2017-10-29T02:00:19.481Z,79.50
2017-10-29T02:02:47.144Z,79.40
2017-10-29T02:05:14.765Z,79.60
2017-10-29T02:07:42.406Z,79.40
2017-10-29T02:10:10.005Z,79.50
2017-10-29T02:12:37.633Z,79.50
2017-10-29T02:15:05.226Z,79.50
2017-10-29T02:17:32.850Z,79.40
2017-10-29T02:20:00.447Z,79.30
2017-10-29T02:22:28.086Z,79.40
2017-10-29T02:24:55.755Z,78.90
2017-10-29T02:27:23.373Z,78.90
2017-10-29T02:29:51.805Z,77.70
2017-10-29T02:32:19.427Z,77.60
2017-10-29T02:34:47.817Z,77.10
2017-10-29T02:37:15.512Z,77.00
2017-10-29T02:39:43.112Z,77.30
2017-10-29T02:42:11.514Z,77.30
2017-10-29T02:44:39.116Z,77.20
2017-10-29T02:47:06.753Z,77.40
2017-10-29T02:49:34.350Z,77.50
2017-10-29T02:52:01.952Z,77.10
2017-10-29T02:54:29.575Z,76.40
2017-10-29T02:56:57.177Z,75.20
2017-10-29T02:59:24.802Z,75.10
2017-10-29T03:01:52.401Z,75.20
2017-10-29T03:04:20.028Z,74.50
2017-10-29T03:06:47.619Z,74.80
2017-10-29T03:09:15.277Z,73.90
2017-10-29T03:11:43.643Z,72.80
2017-10-29T03:14:12.057Z,72.70
2017-10-29T03:16:39.673Z,73.40
2017-10-29T03:19:07.270Z,72.30
2017-10-29T03:21:34.907Z,70.90
2017-10-29T03:24:03.285Z,73.30
2017-10-29T03:26:31.693Z,71.90
2017-10-29T03:28:59.298Z,71.90
2017-10-29T03:31:26.938Z,72.70
2017-10-29T03:33:54.541Z,72.30
2017-10-29T03:36:22.938Z,71.20
2017-10-29T03:38:51.301Z,71.10
2017-10-29T03:41:19.691Z,70.60
2017-10-29T03:43:48.060Z,70.20
2017-10-29T03:46:16.462Z,69.50
2017-10-29T03:48:44.081Z,69.40
2017-10-29T03:51:11.765Z,69.00
2017-10-29T03:53:40.131Z,68.30
2017-10-29T03:56:07.755Z,68.20
2017-10-29T03:58:35.386Z,68.40
2017-10-29T04:01:03.021Z,68.50
2017-10-29T04:03:31.396Z,69.60
2017-10-29T04:05:59.802Z,69.60
2017-10-29T04:08:27.404Z,69.50
2017-10-29T04:10:55.005Z,69.90
2017-10-29T04:13:23.398Z,70.30
2017-10-29T04:15:51.035Z,70.10
2017-10-29T04:18:19.405Z,71.00
2017-10-29T04:20:47.027Z,70.90
2017-10-29T04:23:14.628Z,70.90
2017-10-29T04:25:42.252Z,70.80
2017-10-29T04:28:09.852Z,71.10
2017-10-29T04:30:38.244Z,71.80
2017-10-29T04:33:06.633Z,71.70
2017-10-29T04:35:35.038Z,71.50
2017-10-29T04:38:02.664Z,71.40
2017-10-29T04:40:31.081Z,71.30
2017-10-29T04:42:58.696Z,71.20
2017-10-29T04:45:27.131Z,71.90
2017-10-29T04:47:54.733Z,71.90
2017-10-29T04:50:23.138Z,71.90
2017-10-29T04:52:50.737Z,71.90
2017-10-29T04:55:18.367Z,72.50
2017-10-29T04:57:46.014Z,72.30
2017-10-29T05:00:14.399Z,72.30
2017-10-29T05:02:41.997Z,72.20
2017-10-29T05:05:09.641Z,72.40
2017-10-29T05:07:37.244Z,72.50
2017-10-29T05:10:04.841Z,73.00
2017-10-29T05:12:32.501Z,73.00
2017-10-29T05:15:00.153Z,73.20
2017-10-29T05:17:28.513Z,73.30
2017-10-29T05:22:30.216Z,73.30
2017-10-29T05:24:57.833Z,73.00
2017-10-29T05:27:25.433Z,73.30
2017-10-29T05:29:53.080Z,72.70
2017-10-29T05:32:21.446Z,73.10
2017-10-29T05:34:49.847Z,73.50
2017-10-29T05:37:18.214Z,73.80
2017-10-29T05:39:46.621Z,74.10
2017-10-29T05:42:14.248Z,74.10
2017-10-29T05:44:42.690Z,74.30
2017-10-29T05:47:10.341Z,74.20
2017-10-29T05:49:37.970Z,74.20
2017-10-29T05:52:06.353Z,73.50
2017-10-29T05:54:34.727Z,73.30
2017-10-29T05:57:03.152Z,73.40
2017-10-29T05:59:30.815Z,74.20
2017-10-29T06:01:58.431Z,73.40
2017-10-29T06:04:26.838Z,73.80
2017-10-29T06:06:54.441Z,73.70
2017-10-29T06:09:22.062Z,73.60
2017-10-29T06:11:49.735Z,73.70
2017-10-29T06:14:17.351Z,73.90
2017-10-29T06:16:45.745Z,73.80
2017-10-29T06:19:13.344Z,73.80
2017-10-29T06:21:40.988Z,73.60
2017-10-29T06:24:08.619Z,73.50
2017-10-29T06:26:36.253Z,73.50
2017-10-29T06:29:03.872Z,72.80
2017-10-29T06:31:31.509Z,72.10
2017-10-29T06:33:59.113Z,71.70
2017-10-29T06:36:26.733Z,70.20
2017-10-29T06:38:54.329Z,70.90
2017-10-29T06:41:21.944Z,70.80
2017-10-29T06:43:50.333Z,69.60
2017-10-29T06:46:17.961Z,69.60
2017-10-29T06:48:45.600Z,70.00
2017-10-29T06:51:13.189Z,69.90
2017-10-29T06:53:41.609Z,70.00
2017-10-29T06:56:09.217Z,70.00
2017-10-29T06:58:38.343Z,69.60
2017-10-29T07:01:05.989Z,69.60
2017-10-29T07:03:34.377Z,69.20
2017-10-29T07:06:02.746Z,69.30
2017-10-29T07:08:31.140Z,69.50
2017-10-29T07:10:59.540Z,69.80
2017-10-29T07:13:27.150Z,69.80
2017-10-29T07:15:54.747Z,69.50
2017-10-29T07:18:22.382Z,69.60
2017-10-29T07:20:50.764Z,69.80
2017-10-29T07:23:19.210Z,69.40
2017-10-29T07:25:46.829Z,69.40
2017-10-29T07:28:14.521Z,69.00
2017-10-29T07:30:42.134Z,68.90
2017-10-29T07:33:10.538Z,68.60
2017-10-29T07:35:38.135Z,68.60
2017-10-29T07:38:05.785Z,67.90
2017-10-29T07:40:33.442Z,67.90
2017-10-29T07:43:01.037Z,68.40
2017-10-29T07:45:28.677Z,67.80
2017-10-29T07:47:56.507Z,68.40
2017-10-29T07:50:24.198Z,68.60
2017-10-29T07:52:51.803Z,68.00
2017-10-29T07:55:20.208Z,67.80
2017-10-29T07:57:47.806Z,67.70
2017-10-29T08:00:15.444Z,68.50
2017-10-29T08:02:43.076Z,68.20
2017-10-29T08:05:11.440Z,67.30
2017-10-29T08:07:39.046Z,67.30
2017-10-29T08:10:06.701Z,67.40
2017-10-29T08:12:34.317Z,67.00
2017-10-29T08:15:02.078Z,66.70
2017-10-29T08:17:30.475Z,65.30
2017-10-29T08:19:58.887Z,64.90
2017-10-29T08:22:26.477Z,64.70
2017-10-29T08:24:54.093Z,65.20
2017-10-29T08:27:21.691Z,65.80
2017-10-29T08:29:49.318Z,64.80
2017-10-29T08:32:16.942Z,65.10
2017-10-29T08:34:44.598Z,64.90
2017-10-29T08:37:12.201Z,64.80
2017-10-29T08:39:39.829Z,64.60
2017-10-29T08:42:07.423Z,64.90
2017-10-29T08:44:35.053Z,64.80
2017-10-29T08:47:02.780Z,64.20
2017-10-29T08:49:30.414Z,64.00
2017-10-29T08:51:58.017Z,64.30
2017-10-29T08:54:25.654Z,63.80
2017-10-29T08:56:53.241Z,64.20
2017-10-29T08:59:20.824Z,63.30
2017-10-29T09:01:49.221Z,62.00
2017-10-29T09:04:17.600Z,61.40
2017-10-29T09:06:45.205Z,61.30
2017-10-29T09:09:12.841Z,63.00
2017-10-29T09:11:40.446Z,61.70
2017-10-29T09:14:08.076Z,61.80
2017-10-29T09:16:35.740Z,62.20
2017-10-29T09:19:03.369Z,63.10
2017-10-29T09:21:30.977Z,61.90
2017-10-29T09:23:58.598Z,60.00
2017-10-29T09:26:26.210Z,60.50
2017-10-29T09:28:53.840Z,60.50
2017-10-29T09:31:21.448Z,60.80
2017-10-29T09:33:49.834Z,59.80
2017-10-29T09:36:18.208Z,59.90
2017-10-29T09:38:46.605Z,59.30
2017-10-29T09:41:15.001Z,59.60
2017-10-29T09:43:42.620Z,59.60
2017-10-29T09:46:10.248Z,60.70
2017-10-29T09:48:37.847Z,59.70
2017-10-29T09:51:06.215Z,58.40
2017-10-29T09:53:33.945Z,58.30
2017-10-29T09:56:01.545Z,60.00
2017-10-29T09:58:29.901Z,60.30
2017-10-29T10:01:04.657Z,60.50
2017-10-29T10:03:33.039Z,58.40
2017-10-29T10:06:01.402Z,58.60
2017-10-29T10:08:29.032Z,58.60
2017-10-29T10:10:56.836Z,58.60
2017-10-29T10:13:24.894Z,58.00
2017-10-29T10:15:52.664Z,57.20
2017-10-29T10:18:20.498Z,57.60
2017-10-29T10:20:48.292Z,58.50
2017-10-29T10:23:16.109Z,56.80
2017-10-29T10:25:43.871Z,57.40
2017-10-29T10:28:11.692Z,58.10
2017-10-29T10:30:39.947Z,58.70
2017-10-29T10:33:07.750Z,58.00
2017-10-29T10:35:36.307Z,58.00
2017-10-29T10:38:06.406Z,57.90
2017-10-29T10:40:34.340Z,57.80
2017-10-29T10:43:02.151Z,57.50
2017-10-29T10:45:29.933Z,56.50
2017-10-29T10:47:57.742Z,58.00
2017-10-29T10:50:25.533Z,57.90
2017-10-29T10:52:53.360Z,57.50
2017-10-29T10:55:21.170Z,57.50
2017-10-29T10:57:48.985Z,57.80
2017-10-29T11:00:17.516Z,57.80
2017-10-29T11:02:45.277Z,57.80
2017-10-29T11:05:13.999Z,56.70
2017-10-29T11:07:41.744Z,56.70
2017-10-29T11:10:09.509Z,56.10
2017-10-29T11:12:37.323Z,56.10
2017-10-29T11:15:05.093Z,57.30
2017-10-29T11:17:32.943Z,56.90
2017-10-29T11:20:01.504Z,55.90
2017-10-29T11:22:29.282Z,55.80
2017-10-29T11:24:57.644Z,55.90
2017-10-29T11:27:25.269Z,55.90
2017-10-29T11:29:53.039Z,56.80
2017-10-29T11:32:20.799Z,56.90
2017-10-29T11:34:48.620Z,56.90
2017-10-29T11:37:17.150Z,56.90
2017-10-29T11:39:44.928Z,56.80
2017-10-29T11:42:12.739Z,55.10
2017-10-29T11:44:40.524Z,55.70
2017-10-29T11:47:08.349Z,55.30
2017-10-29T11:49:36.096Z,55.40
2017-10-29T11:52:03.898Z,54.20
2017-10-29T11:54:32.476Z,53.40
2017-10-29T11:57:01.073Z,52.80
2017-10-29T11:59:28.837Z,52.80
2017-10-29T12:01:56.653Z,52.80
2017-10-29T12:04:24.413Z,53.20
2017-10-29T12:06:52.313Z,53.20
2017-10-29T12:09:20.977Z,55.10
2017-10-29T12:11:48.872Z,55.20
2017-10-29T12:14:17.406Z,52.90
2017-10-29T12:16:45.280Z,52.80
2017-10-29T12:19:13.150Z,53.30
2017-10-29T12:21:41.016Z,52.90
2017-10-29T12:24:08.880Z,52.90
2017-10-29T12:26:36.654Z,53.10
2017-10-29T12:29:04.451Z,52.50
2017-10-29T12:31:33.096Z,53.80
2017-10-29T12:34:01.069Z,53.80
2017-10-29T12:36:28.929Z,54.10
2017-10-29T12:38:56.902Z,54.80
2017-10-29T12:41:24.762Z,55.20
2017-10-29T12:43:52.633Z,55.90
2017-10-29T12:46:20.506Z,56.00
2017-10-29T12:48:48.367Z,56.90
2017-10-29T12:51:16.365Z,58.00
2017-10-29T12:53:45.021Z,58.50
2017-10-29T12:56:13.337Z,58.50
2017-10-29T12:58:41.992Z,58.80
2017-10-29T13:01:11.396Z,59.40
2017-10-29T13:03:39.250Z,58.80
2017-10-29T13:06:07.225Z,59.10
2017-10-29T13:08:35.088Z,58.40
2017-10-29T13:11:02.964Z,58.70
2017-10-29T13:13:30.823Z,58.60
2017-10-29T13:15:59.097Z,57.90
2017-10-29T13:18:27.073Z,57.50
2017-10-29T13:20:55.038Z,58.60
2017-10-29T13:23:22.912Z,58.10
2017-10-29T13:25:50.753Z,58.10
2017-10-29T13:28:18.525Z,58.00
2017-10-29T13:30:46.109Z,57.10
2017-10-29T13:33:13.769Z,56.90
2017-10-29T13:35:41.361Z,57.40
2017-10-29T13:38:09.731Z,57.80
2017-10-29T13:40:38.125Z,56.30
2017-10-29T13:43:05.714Z,56.30
2017-10-29T13:45:33.336Z,56.50
2017-10-29T13:48:01.698Z,57.00
2017-10-29T13:50:30.110Z,55.30
2017-10-29T13:52:57.697Z,54.60
2017-10-29T13:55:25.806Z,55.00
2017-10-29T13:57:53.404Z,54.20
2017-10-29T14:00:21.033Z,54.50
2017-10-29T14:02:49.415Z,54.00
2017-10-29T14:05:17.047Z,54.00
2017-10-29T14:07:44.640Z,54.30
2017-10-29T14:10:13.199Z,54.20
2017-10-29T14:12:40.801Z,54.20
2017-10-29T14:15:08.430Z,55.20
2017-10-29T14:17:36.025Z,55.90
2017-10-29T14:20:03.656Z,54.50
2017-10-29T14:22:31.265Z,54.80
2017-10-29T14:24:58.904Z,54.20
2017-10-29T14:27:26.489Z,54.20
2017-10-29T14:29:54.312Z,55.10
2017-10-29T14:32:22.903Z,53.90
2017-10-29T14:34:51.431Z,53.90
2017-10-29T14:37:19.225Z,53.90
2017-10-29T14:39:47.155Z,54.70
2017-10-29T14:42:14.948Z,54.90
2017-10-29T14:44:42.775Z,55.40
2017-10-29T14:47:10.635Z,55.40
2017-10-29T14:49:38.470Z,55.80
2017-10-29T14:52:06.233Z,55.90
2017-10-29T14:54:34.839Z,56.40
2017-10-29T14:57:02.619Z,56.40
2017-10-29T14:59:30.436Z,56.30
2017-10-29T15:01:58.169Z,55.80
2017-10-29T15:04:25.978Z,55.20
2017-10-29T15:06:53.731Z,56.10
2017-10-29T15:09:21.546Z,55.90
2017-10-29T15:11:49.302Z,56.50
2017-10-29T15:14:17.121Z,56.20
2017-10-29T15:16:44.937Z,56.60
2017-10-29T15:19:12.720Z,56.00
2017-10-29T15:21:41.253Z,56.40
2017-10-29T15:24:09.870Z,56.10
2017-10-29T15:26:37.778Z,56.00
2017-10-29T15:29:05.743Z,56.20
2017-10-29T15:31:33.613Z,55.90
2017-10-29T15:34:01.480Z,56.20
2017-10-29T15:36:29.458Z,56.20
2017-10-29T15:38:57.308Z,55.60
2017-10-29T15:41:25.182Z,55.80
2017-10-29T15:43:52.829Z,56.00
2017-10-29T15:46:20.433Z,55.80
2017-10-29T15:48:48.824Z,56.30
2017-10-29T15:51:17.189Z,56.00
2017-10-29T15:53:45.588Z,56.60
2017-10-29T15:56:13.185Z,56.60
2017-10-29T15:58:40.812Z,56.60
2017-10-29T16:01:08.409Z,56.50
2017-10-29T16:03:36.065Z,56.70
2017-10-29T16:06:03.663Z,56.80
2017-10-29T16:08:31.291Z,56.70
2017-10-29T16:10:58.893Z,57.20
2017-10-29T16:13:27.286Z,57.20
2017-10-29T16:15:55.658Z,57.00
2017-10-29T16:18:24.049Z,56.90
2017-10-29T16:20:52.408Z,57.00
2017-10-29T16:23:20.784Z,57.70
2017-10-29T16:25:49.149Z,57.00
2017-10-29T16:28:16.886Z,57.30
2017-10-29T16:30:45.181Z,56.80
2017-10-29T16:33:12.783Z,56.90
2017-10-29T16:35:41.185Z,57.30
2017-10-29T16:38:08.793Z,57.20
2017-10-29T16:40:36.382Z,56.90
2017-10-29T16:43:04.307Z,57.20
2017-10-29T16:45:32.178Z,57.20
2017-10-29T16:48:00.044Z,57.50
2017-10-29T16:50:28.012Z,57.60
2017-10-29T16:52:55.877Z,57.80
2017-10-29T16:55:23.844Z,57.60
2017-10-29T16:57:51.608Z,57.50
2017-10-29T17:00:19.476Z,56.70
2017-10-29T17:02:47.245Z,57.30
2017-10-29T17:05:15.209Z,57.50
2017-10-29T17:07:43.075Z,57.50
2017-10-29T17:10:10.940Z,57.50
2017-10-29T17:12:39.809Z,57.40
2017-10-29T17:15:09.411Z,57.70
2017-10-29T17:17:38.101Z,57.90
2017-10-29T17:20:06.574Z,57.80
2017-10-29T17:22:35.162Z,57.90
2017-10-29T17:25:03.160Z,58.20
2017-10-29T17:27:30.922Z,58.00
2017-10-29T17:29:58.787Z,58.10
2017-10-29T17:32:26.656Z,57.60
2017-10-29T17:34:54.630Z,58.00
2017-10-29T17:37:22.500Z,58.10
2017-10-29T17:39:50.918Z,58.00
2017-10-29T17:42:19.281Z,57.50
2017-10-29T17:44:47.840Z,57.30
2017-10-29T17:47:15.697Z,57.20
2017-10-29T17:49:43.635Z,57.00
2017-10-29T17:52:11.533Z,57.40
2017-10-29T17:54:40.114Z,57.20
2017-10-29T17:57:07.989Z,57.60
2017-10-29T17:59:35.853Z,58.10
2017-10-29T18:02:03.830Z,58.40
2017-10-29T18:04:31.692Z,58.40
2017-10-29T18:06:59.657Z,58.40
2017-10-29T18:09:27.531Z,58.40
2017-10-29T18:11:55.489Z,58.20
2017-10-29T18:14:23.476Z,58.30
2017-10-29T18:16:51.334Z,58.30
2017-10-29T18:19:19.115Z,58.60
2017-10-29T18:21:46.931Z,58.90
2017-10-29T18:24:14.715Z,58.90
2017-10-29T18:26:42.535Z,58.70
2017-10-29T18:29:11.049Z,58.00
2017-10-29T18:31:38.841Z,58.00
2017-10-29T18:34:06.666Z,58.50
2017-10-29T18:36:34.423Z,58.50
2017-10-29T18:39:02.237Z,58.60
2017-10-29T18:41:30.037Z,58.70
2017-10-29T18:43:58.575Z,58.70
2017-10-29T18:46:26.390Z,58.60
2017-10-29T18:48:54.930Z,58.80
2017-10-29T18:51:26.469Z,58.70
2017-10-29T18:53:54.061Z,59.30
2017-10-29T18:56:21.683Z,58.90
2017-10-29T18:58:49.281Z,59.30
2017-10-29T19:01:16.898Z,59.00
2017-10-29T19:03:44.533Z,58.80
2017-10-29T19:06:12.172Z,58.60
2017-10-29T19:08:40.541Z,59.00
2017-10-29T19:11:08.175Z,58.90
2017-10-29T19:13:35.773Z,59.30
2017-10-29T19:16:03.426Z,59.20
2017-10-29T19:18:31.025Z,59.30
2017-10-29T19:20:58.713Z,59.30
2017-10-29T19:23:26.315Z,59.40
2017-10-29T19:25:53.964Z,59.30
2017-10-29T19:28:21.558Z,59.30
2017-10-29T19:30:49.934Z,59.60
2017-10-29T19:33:18.349Z,59.70
2017-10-29T19:35:45.955Z,59.60
2017-10-29T19:38:13.553Z,59.80
2017-10-29T19:40:41.168Z,59.30
2017-10-29T19:43:08.758Z,59.80
2017-10-29T19:45:36.389Z,59.70
2017-10-29T19:48:04.000Z,59.80
2017-10-29T19:50:31.890Z,60.00
2017-10-29T19:52:59.644Z,59.80
2017-10-29T19:55:27.541Z,60.10
2017-10-29T19:57:55.318Z,59.90
2017-10-29T20:00:23.147Z,59.90
2017-10-29T20:02:50.958Z,60.00
2017-10-29T20:05:19.580Z,60.00
2017-10-29T20:07:47.447Z,59.90
2017-10-29T20:10:15.353Z,60.30
2017-10-29T20:12:43.173Z,60.50
2017-10-29T20:15:10.995Z,60.20
2017-10-29T20:17:38.749Z,60.40
2017-10-29T20:20:06.562Z,60.70
2017-10-29T20:22:34.348Z,60.90
2017-10-29T20:25:02.162Z,60.30
2017-10-29T20:27:29.946Z,60.40
2017-10-29T20:29:58.567Z,60.70
2017-10-29T20:32:26.345Z,60.70
2017-10-29T20:34:54.122Z,60.70
2017-10-29T20:37:21.948Z,60.50
2017-10-29T20:39:49.711Z,60.40
2017-10-29T20:42:17.463Z,60.80
2017-10-29T20:44:45.269Z,60.90
2017-10-29T20:47:13.045Z,60.90
2017-10-29T20:49:40.855Z,61.00
2017-10-29T20:52:08.609Z,61.10
2017-10-29T20:54:37.194Z,60.80
2017-10-29T20:57:05.744Z,61.70
2017-10-29T20:59:33.576Z,60.80
2017-10-29T21:02:01.362Z,61.00
2017-10-29T21:04:29.170Z,61.10
2017-10-29T21:06:57.716Z,61.10
2017-10-29T21:09:25.558Z,61.00
2017-10-29T21:11:53.341Z,61.20
2017-10-29T21:14:21.422Z,61.00
2017-10-29T21:16:49.392Z,61.30
2017-10-29T21:19:17.212Z,61.10
2017-10-29T21:21:45.015Z,61.30
2017-10-29T21:24:13.303Z,61.10
2017-10-29T21:26:41.226Z,61.00
2017-10-29T21:29:09.041Z,61.00
2017-10-29T21:31:36.803Z,61.10
2017-10-29T21:34:04.607Z,61.30
2017-10-29T21:36:32.425Z,61.60
2017-10-29T21:39:00.205Z,61.30
2017-10-29T21:41:28.083Z,61.70
2017-10-29T21:43:55.898Z,61.20
2017-10-29T21:46:23.677Z,60.60
2017-10-29T21:48:51.512Z,61.70
2017-10-29T21:51:19.295Z,61.70
2017-10-29T21:53:47.132Z,61.40
2017-10-29T21:56:14.917Z,61.70
2017-10-29T21:58:42.724Z,61.20
2017-10-29T22:01:10.509Z,61.50
2017-10-29T22:03:39.093Z,62.00
2017-10-29T22:06:07.659Z,61.50
2017-10-29T22:08:35.459Z,61.40
2017-10-29T22:11:03.224Z,61.90
2017-10-29T22:13:31.036Z,61.80
2017-10-29T22:15:58.819Z,62.00
2017-10-29T22:18:26.638Z,62.20
2017-10-29T22:20:54.422Z,61.90
2017-10-29T22:23:22.231Z,62.30
2017-10-29T22:25:50.763Z,61.90
2017-10-29T22:28:18.545Z,61.80
2017-10-29T22:30:46.393Z,61.40
2017-10-29T22:33:14.188Z,62.00
2017-10-29T22:35:41.975Z,62.00
2017-10-29T22:38:10.628Z,62.00
2017-10-29T22:40:38.229Z,62.00
2017-10-29T22:43:06.600Z,61.80
2017-10-29T22:45:35.002Z,62.00
2017-10-29T22:48:02.609Z,62.00
2017-10-29T22:50:30.364Z,62.30
2017-10-29T22:52:58.028Z,62.00
2017-10-29T22:55:25.628Z,62.50
2017-10-29T22:57:54.001Z,62.20
2017-10-29T23:00:21.646Z,62.20
2017-10-29T23:02:50.053Z,62.20
2017-10-29T23:05:30.522Z,62.70
2017-10-29T23:08:16.895Z,62.50
2017-10-29T23:10:44.542Z,62.70
2017-10-29T23:13:12.152Z,63.00
2017-10-29T23:15:39.745Z,62.90
2017-10-29T23:18:07.391Z,62.70
2017-10-29T23:20:35.014Z,63.30
2017-10-29T23:23:03.394Z,62.80
2017-10-29T23:25:31.793Z,63.10
2017-10-29T23:27:59.390Z,63.00
2017-10-29T23:30:27.002Z,63.00
2017-10-29T23:32:55.404Z,63.20
2017-10-29T23:35:23.199Z,63.20
2017-10-29T23:37:51.783Z,63.10
2017-10-29T23:40:19.421Z,63.00
2017-10-29T23:42:47.038Z,63.20
2017-10-29T23:45:15.406Z,63.60
2017-10-29T23:47:43.042Z,63.50
2017-10-29T23:50:10.649Z,63.20
2017-10-29T23:52:39.079Z,63.50
2017-10-29T23:55:06.726Z,63.40
2017-10-29T23:57:34.320Z,63.40
